South River, New Jersey
Current Conditions -  °F | °C
As of 12:55 PM on Thursday 30 Oct 2014 (Local Time) from KLDJ Reporting Station
Clear Clear  
Wind Chill: 16°   Ceiling: Unl
Heat Index: 16°   Visibility: 10mi
Dew Point:   Wind: 8mph
Humidity: 49%   Direction: 320°NW
Pressure: 30.02"   Gusts: 17mph
Location:  40.45°N, 74.38°W
Report Text: KLDJ 301655Z AUTO 32007G15KT 10SM CLR 16/06 A3002 RMK AO2 T01630055
Loading
Personal Weather Stations






























Interactive Weather Map
Tropical Storm Tracking
New forecast layout! Learn more

10-Day Weather Forecast

Advertisements
Track Severe Weather on mobile